< < Back
Terminal Aerodrome Forecast


Current Version              Previous Versions:   1  2  3  4  5  6  7  8  9  

Terminal Aerodrome Forecast

775
FTUS42 KCAE 281700
TAFCAE
TAF
KCAE 281721Z 2818/2918 29010G17KT P6SM SCT050
     FM290000 33006KT P6SM SKC
     FM290600 VRB03KT P6SM SKC=



Latest METAR

843
SAUS80 KWBC 282300
MTRCAE
METAR KCAE 282256Z 33007KT 300V360 10SM FEW065 12/M08 A3010 RMK AO2
SLP192 T01221078


USA.gov is the U.S. government's official web portal to all federal, state and local government web resources and services.